sensor_id;sensor_type;location;lat;lon;timestamp;P1;durP1;ratioP1;P2;durP2;ratioP2
48487;SDS011;34289;48.572;13.378;2023-03-01T00:01:05;22.02;;;17.15;;
48487;SDS011;34289;48.572;13.378;2023-03-01T00:03:33;24.15;;;18.00;;
48487;SDS011;34289;48.572;13.378;2023-03-01T00:05:59;23.10;;;17.92;;
48487;SDS011;34289;48.572;13.378;2023-03-01T00:08:25;25.27;;;18.02;;
48487;SDS011;34289;48.572;13.378;2023-03-01T00:13:43;27.23;;;19.33;;
48487;SDS011;34289;48.572;13.378;2023-03-01T00:16:15;24.75;;;19.10;;
48487;SDS011;34289;48.572;13.378;2023-03-01T00:18:42;26.05;;;18.42;;
48487;SDS011;34289;48.572;13.378;2023-03-01T00:21:08;24.73;;;17.23;;
48487;SDS011;34289;48.572;13.378;2023-03-01T00:23:34;23.95;;;17.60;;
48487;SDS011;34289;48.572;13.378;2023-03-01T00:26:00;23.08;;;18.15;;
48487;SDS011;34289;48.572;13.378;2023-03-01T00:28:26;26.42;;;18.33;;
48487;SDS011;34289;48.572;13.378;2023-03-01T00:30:51;20.27;;;16.23;;
48487;SDS011;34289;48.572;13.378;2023-03-01T00:33:17;23.45;;;17.08;;
48487;SDS011;34289;48.572;13.378;2023-03-01T00:35:43;21.92;;;17.40;;
48487;SDS011;34289;48.572;13.378;2023-03-01T00:38:09;24.90;;;19.67;;
48487;SDS011;34289;48.572;13.378;2023-03-01T00:40:35;22.08;;;18.08;;
48487;SDS011;34289;48.572;13.378;2023-03-01T00:43:01;26.52;;;16.23;;
48487;SDS011;34289;48.572;13.378;2023-03-01T00:45:27;23.50;;;17.92;;
48487;SDS011;34289;48.572;13.378;2023-03-01T00:47:53;24.05;;;18.48;;
48487;SDS011;34289;48.572;13.378;2023-03-01T00:50:20;23.42;;;18.08;;
48487;SDS011;34289;48.572;13.378;2023-03-01T00:52:45;23.73;;;16.75;;
48487;SDS011;34289;48.572;13.378;2023-03-01T00:55:11;22.67;;;16.52;;
48487;SDS011;34289;48.572;13.378;2023-03-01T00:57:37;27.88;;;17.13;;
48487;SDS011;34289;48.572;13.378;2023-03-01T01:00:06;19.02;;;15.50;;
48487;SDS011;34289;48.572;13.378;2023-03-01T01:02:33;19.88;;;16.10;;
48487;SDS011;34289;48.572;13.378;2023-03-01T01:04:59;20.38;;;16.55;;
48487;SDS011;34289;48.572;13.378;2023-03-01T01:07:25;20.23;;;16.98;;
48487;SDS011;34289;48.572;13.378;2023-03-01T01:09:50;21.52;;;17.73;;
48487;SDS011;34289;48.572;13.378;2023-03-01T01:12:19;25.35;;;18.08;;
48487;SDS011;34289;48.572;13.378;2023-03-01T01:14:44;23.42;;;16.85;;
48487;SDS011;34289;48.572;13.378;2023-03-01T01:17:11;22.40;;;17.55;;
48487;SDS011;34289;48.572;13.378;2023-03-01T01:19:36;21.63;;;16.95;;
48487;SDS011;34289;48.572;13.378;2023-03-01T01:22:02;21.67;;;16.25;;
48487;SDS011;34289;48.572;13.378;2023-03-01T01:24:28;21.75;;;17.30;;
48487;SDS011;34289;48.572;13.378;2023-03-01T01:26:54;20.85;;;16.25;;
48487;SDS011;34289;48.572;13.378;2023-03-01T01:29:20;20.08;;;16.42;;
48487;SDS011;34289;48.572;13.378;2023-03-01T01:31:46;22.75;;;16.70;;
48487;SDS011;34289;48.572;13.378;2023-03-01T01:34:18;22.58;;;16.25;;
48487;SDS011;34289;48.572;13.378;2023-03-01T01:36:49;18.25;;;16.23;;
48487;SDS011;34289;48.572;13.378;2023-03-01T01:39:18;21.25;;;16.48;;
48487;SDS011;34289;48.572;13.378;2023-03-01T01:41:44;25.15;;;17.38;;
48487;SDS011;34289;48.572;13.378;2023-03-01T01:44:11;24.52;;;16.02;;
48487;SDS011;34289;48.572;13.378;2023-03-01T01:52:04;22.60;;;15.85;;
48487;SDS011;34289;48.572;13.378;2023-03-01T01:54:38;25.27;;;16.85;;
48487;SDS011;34289;48.572;13.378;2023-03-01T01:57:23;21.02;;;16.00;;
48487;SDS011;34289;48.572;13.378;2023-03-01T02:00:09;19.67;;;15.63;;
48487;SDS011;34289;48.572;13.378;2023-03-01T02:02:39;19.27;;;17.00;;
48487;SDS011;34289;48.572;13.378;2023-03-01T02:06:12;20.45;;;16.83;;
48487;SDS011;34289;48.572;13.378;2023-03-01T02:08:23;22.10;;;16.73;;
48487;SDS011;34289;48.572;13.378;2023-03-01T02:10:53;22.42;;;16.95;;
48487;SDS011;34289;48.572;13.378;2023-03-01T02:13:20;20.55;;;16.63;;
48487;SDS011;34289;48.572;13.378;2023-03-01T02:15:48;21.02;;;15.57;;
48487;SDS011;34289;48.572;13.378;2023-03-01T02:18:14;20.55;;;17.00;;
48487;SDS011;34289;48.572;13.378;2023-03-01T02:23:25;26.27;;;18.38;;
48487;SDS011;34289;48.572;13.378;2023-03-01T02:28:31;25.42;;;18.15;;
48487;SDS011;34289;48.572;13.378;2023-03-01T02:31:06;25.05;;;17.08;;
48487;SDS011;34289;48.572;13.378;2023-03-01T02:33:52;23.27;;;17.45;;
48487;SDS011;34289;48.572;13.378;2023-03-01T02:36:20;29.10;;;17.65;;
48487;SDS011;34289;48.572;13.378;2023-03-01T02:38:49;22.58;;;17.88;;
48487;SDS011;34289;48.572;13.378;2023-03-01T02:41:18;24.52;;;18.90;;
48487;SDS011;34289;48.572;13.378;2023-03-01T02:43:45;21.90;;;16.33;;
48487;SDS011;34289;48.572;13.378;2023-03-01T02:46:16;22.88;;;16.85;;
48487;SDS011;34289;48.572;13.378;2023-03-01T02:48:51;26.00;;;16.90;;
48487;SDS011;34289;48.572;13.378;2023-03-01T02:54:17;19.25;;;15.52;;
48487;SDS011;34289;48.572;13.378;2023-03-01T02:57:16;20.45;;;15.27;;
48487;SDS011;34289;48.572;13.378;2023-03-01T02:59:43;23.33;;;17.02;;
48487;SDS011;34289;48.572;13.378;2023-03-01T03:02:18;25.00;;;17.05;;
48487;SDS011;34289;48.572;13.378;2023-03-01T03:05:00;26.33;;;18.02;;
48487;SDS011;34289;48.572;13.378;2023-03-01T03:07:44;23.02;;;17.30;;
48487;SDS011;34289;48.572;13.378;2023-03-01T03:10:13;23.35;;;16.60;;
48487;SDS011;34289;48.572;13.378;2023-03-01T03:12:54;20.13;;;16.70;;
48487;SDS011;34289;48.572;13.378;2023-03-01T03:15:22;21.05;;;16.70;;
48487;SDS011;34289;48.572;13.378;2023-03-01T03:17:48;21.08;;;15.98;;
48487;SDS011;34289;48.572;13.378;2023-03-01T03:20:15;24.58;;;16.65;;
48487;SDS011;34289;48.572;13.378;2023-03-01T03:22:44;22.20;;;16.92;;
48487;SDS011;34289;48.572;13.378;2023-03-01T03:25:14;22.27;;;17.52;;
48487;SDS011;34289;48.572;13.378;2023-03-01T03:27:42;23.70;;;18.02;;
48487;SDS011;34289;48.572;13.378;2023-03-01T03:30:13;22.25;;;15.55;;
48487;SDS011;34289;48.572;13.378;2023-03-01T03:32:43;21.60;;;17.90;;
48487;SDS011;34289;48.572;13.378;2023-03-01T03:35:17;24.40;;;17.25;;
48487;SDS011;34289;48.572;13.378;2023-03-01T03:37:55;28.60;;;17.77;;
48487;SDS011;34289;48.572;13.378;2023-03-01T03:40:32;22.48;;;16.05;;
48487;SDS011;34289;48.572;13.378;2023-03-01T03:42:59;25.63;;;17.45;;
48487;SDS011;34289;48.572;13.378;2023-03-01T03:45:25;25.77;;;19.08;;
48487;SDS011;34289;48.572;13.378;2023-03-01T03:47:51;22.73;;;18.67;;
48487;SDS011;34289;48.572;13.378;2023-03-01T03:50:17;30.95;;;19.85;;
48487;SDS011;34289;48.572;13.378;2023-03-01T03:52:43;26.05;;;18.50;;
48487;SDS011;34289;48.572;13.378;2023-03-01T03:55:10;23.70;;;15.80;;
48487;SDS011;34289;48.572;13.378;2023-03-01T03:57:38;23.38;;;16.85;;
48487;SDS011;34289;48.572;13.378;2023-03-01T04:00:05;26.10;;;17.20;;
48487;SDS011;34289;48.572;13.378;2023-03-01T04:05:07;23.50;;;17.08;;
48487;SDS011;34289;48.572;13.378;2023-03-01T04:07:34;30.20;;;18.90;;
48487;SDS011;34289;48.572;13.378;2023-03-01T04:10:01;24.05;;;18.25;;
48487;SDS011;34289;48.572;13.378;2023-03-01T04:12:28;22.05;;;17.75;;
48487;SDS011;34289;48.572;13.378;2023-03-01T04:14:53;25.25;;;18.83;;
48487;SDS011;34289;48.572;13.378;2023-03-01T04:17:19;27.25;;;18.50;;
48487;SDS011;34289;48.572;13.378;2023-03-01T04:19:44;24.67;;;17.42;;
48487;SDS011;34289;48.572;13.378;2023-03-01T04:22:13;24.08;;;17.25;;
48487;SDS011;34289;48.572;13.378;2023-03-01T04:24:43;23.55;;;18.73;;
48487;SDS011;34289;48.572;13.378;2023-03-01T04:27:09;25.92;;;18.40;;
48487;SDS011;34289;48.572;13.378;2023-03-01T04:29:35;24.40;;;18.80;;
48487;SDS011;34289;48.572;13.378;2023-03-01T04:32:01;25.80;;;17.70;;
48487;SDS011;34289;48.572;13.378;2023-03-01T04:34:27;24.40;;;17.73;;
48487;SDS011;34289;48.572;13.378;2023-03-01T04:36:54;26.17;;;19.85;;
48487;SDS011;34289;48.572;13.378;2023-03-01T04:39:19;26.67;;;18.60;;
48487;SDS011;34289;48.572;13.378;2023-03-01T04:41:45;26.40;;;16.48;;
48487;SDS011;34289;48.572;13.378;2023-03-01T04:44:11;23.30;;;15.77;;
48487;SDS011;34289;48.572;13.378;2023-03-01T04:46:37;22.83;;;16.92;;
48487;SDS011;34289;48.572;13.378;2023-03-01T04:49:03;27.67;;;18.15;;
48487;SDS011;34289;48.572;13.378;2023-03-01T04:51:30;27.42;;;19.65;;
48487;SDS011;34289;48.572;13.378;2023-03-01T04:53:57;28.75;;;19.73;;
48487;SDS011;34289;48.572;13.378;2023-03-01T04:56:23;27.52;;;18.15;;
48487;SDS011;34289;48.572;13.378;2023-03-01T04:58:49;30.17;;;18.05;;
48487;SDS011;34289;48.572;13.378;2023-03-01T05:01:15;23.33;;;17.52;;
48487;SDS011;34289;48.572;13.378;2023-03-01T05:03:44;28.90;;;18.73;;
48487;SDS011;34289;48.572;13.378;2023-03-01T05:06:11;25.90;;;18.13;;
48487;SDS011;34289;48.572;13.378;2023-03-01T05:08:39;23.63;;;17.50;;
48487;SDS011;34289;48.572;13.378;2023-03-01T05:11:06;25.63;;;17.48;;
48487;SDS011;34289;48.572;13.378;2023-03-01T05:13:34;25.10;;;18.02;;
48487;SDS011;34289;48.572;13.378;2023-03-01T05:16:01;21.80;;;17.10;;
48487;SDS011;34289;48.572;13.378;2023-03-01T05:18:28;23.92;;;17.17;;
48487;SDS011;34289;48.572;13.378;2023-03-01T05:20:55;25.08;;;16.48;;
48487;SDS011;34289;48.572;13.378;2023-03-01T05:23:26;26.30;;;17.17;;
48487;SDS011;34289;48.572;13.378;2023-03-01T05:25:52;25.17;;;18.30;;
48487;SDS011;34289;48.572;13.378;2023-03-01T05:28:18;27.73;;;18.50;;
48487;SDS011;34289;48.572;13.378;2023-03-01T05:30:45;27.13;;;18.65;;
48487;SDS011;34289;48.572;13.378;2023-03-01T05:33:11;23.23;;;15.38;;
48487;SDS011;34289;48.572;13.378;2023-03-01T05:35:40;23.13;;;16.00;;
48487;SDS011;34289;48.572;13.378;2023-03-01T05:38:10;29.00;;;18.13;;
48487;SDS011;34289;48.572;13.378;2023-03-01T05:40:38;30.52;;;18.45;;
48487;SDS011;34289;48.572;13.378;2023-03-01T05:43:04;30.30;;;19.92;;
48487;SDS011;34289;48.572;13.378;2023-03-01T05:45:31;34.40;;;21.27;;
48487;SDS011;34289;48.572;13.378;2023-03-01T05:47:59;26.98;;;18.08;;
48487;SDS011;34289;48.572;13.378;2023-03-01T05:50:26;29.00;;;19.90;;
48487;SDS011;34289;48.572;13.378;2023-03-01T05:55:51;33.33;;;19.33;;
48487;SDS011;34289;48.572;13.378;2023-03-01T05:58:17;37.38;;;21.95;;
48487;SDS011;34289;48.572;13.378;2023-03-01T06:00:45;38.28;;;23.45;;
48487;SDS011;34289;48.572;13.378;2023-03-01T06:03:13;30.33;;;19.40;;
48487;SDS011;34289;48.572;13.378;2023-03-01T06:05:40;30.50;;;19.33;;
48487;SDS011;34289;48.572;13.378;2023-03-01T06:08:08;32.33;;;20.35;;
48487;SDS011;34289;48.572;13.378;2023-03-01T06:10:34;30.38;;;20.70;;
48487;SDS011;34289;48.572;13.378;2023-03-01T06:13:00;34.50;;;22.10;;
48487;SDS011;34289;48.572;13.378;2023-03-01T06:15:26;30.40;;;20.58;;
48487;SDS011;34289;48.572;13.378;2023-03-01T06:17:53;31.27;;;19.63;;
48487;SDS011;34289;48.572;13.378;2023-03-01T06:20:22;27.40;;;18.60;;
48487;SDS011;34289;48.572;13.378;2023-03-01T06:22:49;30.27;;;19.63;;
48487;SDS011;34289;48.572;13.378;2023-03-01T06:25:17;32.55;;;19.05;;
48487;SDS011;34289;48.572;13.378;2023-03-01T06:27:44;30.23;;;18.13;;
48487;SDS011;34289;48.572;13.378;2023-03-01T06:30:11;31.55;;;21.40;;
48487;SDS011;34289;48.572;13.378;2023-03-01T06:32:38;30.90;;;20.70;;
48487;SDS011;34289;48.572;13.378;2023-03-01T06:35:08;33.95;;;22.08;;
48487;SDS011;34289;48.572;13.378;2023-03-01T06:37:37;31.10;;;19.73;;
48487;SDS011;34289;48.572;13.378;2023-03-01T06:40:04;28.58;;;18.75;;
48487;SDS011;34289;48.572;13.378;2023-03-01T06:42:34;32.92;;;21.00;;
48487;SDS011;34289;48.572;13.378;2023-03-01T06:45:01;30.85;;;18.73;;
48487;SDS011;34289;48.572;13.378;2023-03-01T06:47:27;28.15;;;19.55;;
48487;SDS011;34289;48.572;13.378;2023-03-01T06:49:52;28.13;;;20.90;;
48487;SDS011;34289;48.572;13.378;2023-03-01T06:52:18;33.15;;;21.00;;
48487;SDS011;34289;48.572;13.378;2023-03-01T06:54:44;30.73;;;18.70;;
48487;SDS011;34289;48.572;13.378;2023-03-01T06:57:09;28.25;;;16.95;;
48487;SDS011;34289;48.572;13.378;2023-03-01T06:59:35;22.48;;;16.55;;
48487;SDS011;34289;48.572;13.378;2023-03-01T07:02:00;23.40;;;17.38;;
48487;SDS011;34289;48.572;13.378;2023-03-01T07:04:26;21.38;;;16.60;;
48487;SDS011;34289;48.572;13.378;2023-03-01T07:06:53;21.63;;;16.42;;
48487;SDS011;34289;48.572;13.378;2023-03-01T07:09:20;21.13;;;17.13;;
48487;SDS011;34289;48.572;13.378;2023-03-01T07:11:47;19.45;;;16.73;;
48487;SDS011;34289;48.572;13.378;2023-03-01T07:14:13;18.42;;;16.27;;
48487;SDS011;34289;48.572;13.378;2023-03-01T07:16:39;19.00;;;15.90;;
48487;SDS011;34289;48.572;13.378;2023-03-01T07:19:04;19.60;;;15.82;;
48487;SDS011;34289;48.572;13.378;2023-03-01T07:21:30;18.27;;;16.27;;
48487;SDS011;34289;48.572;13.378;2023-03-01T07:23:56;21.92;;;16.88;;
48487;SDS011;34289;48.572;13.378;2023-03-01T07:26:22;19.83;;;17.48;;
48487;SDS011;34289;48.572;13.378;2023-03-01T07:28:47;23.80;;;16.98;;
48487;SDS011;34289;48.572;13.378;2023-03-01T07:31:13;19.70;;;17.30;;
48487;SDS011;34289;48.572;13.378;2023-03-01T07:33:39;19.15;;;16.98;;
48487;SDS011;34289;48.572;13.378;2023-03-01T07:36:05;21.90;;;18.33;;
48487;SDS011;34289;48.572;13.378;2023-03-01T07:38:31;23.52;;;18.85;;
48487;SDS011;34289;48.572;13.378;2023-03-01T07:41:01;21.45;;;19.27;;
48487;SDS011;34289;48.572;13.378;2023-03-01T07:43:29;23.90;;;20.27;;
48487;SDS011;34289;48.572;13.378;2023-03-01T07:45:57;24.42;;;21.38;;
48487;SDS011;34289;48.572;13.378;2023-03-01T07:48:24;28.20;;;20.77;;
48487;SDS011;34289;48.572;13.378;2023-03-01T07:50:49;23.83;;;20.27;;
48487;SDS011;34289;48.572;13.378;2023-03-01T07:53:15;24.50;;;20.52;;
48487;SDS011;34289;48.572;13.378;2023-03-01T07:55:41;23.45;;;20.98;;
48487;SDS011;34289;48.572;13.378;2023-03-01T07:58:06;26.02;;;22.77;;
48487;SDS011;34289;48.572;13.378;2023-03-01T08:00:32;24.45;;;22.00;;
48487;SDS011;34289;48.572;13.378;2023-03-01T08:03:01;22.35;;;20.05;;
48487;SDS011;34289;48.572;13.378;2023-03-01T08:05:27;23.20;;;20.60;;
48487;SDS011;34289;48.572;13.378;2023-03-01T08:07:53;23.60;;;21.10;;
48487;SDS011;34289;48.572;13.378;2023-03-01T08:10:19;25.35;;;22.48;;
48487;SDS011;34289;48.572;13.378;2023-03-01T08:12:45;24.77;;;22.15;;
48487;SDS011;34289;48.572;13.378;2023-03-01T08:15:10;25.02;;;22.48;;
48487;SDS011;34289;48.572;13.378;2023-03-01T08:17:36;24.45;;;21.83;;
48487;SDS011;34289;48.572;13.378;2023-03-01T08:20:02;27.05;;;23.15;;
48487;SDS011;34289;48.572;13.378;2023-03-01T08:22:31;31.23;;;22.30;;
48487;SDS011;34289;48.572;13.378;2023-03-01T08:24:56;24.95;;;21.33;;
48487;SDS011;34289;48.572;13.378;2023-03-01T08:27:22;21.85;;;19.52;;
48487;SDS011;34289;48.572;13.378;2023-03-01T08:29:47;29.35;;;20.70;;
48487;SDS011;34289;48.572;13.378;2023-03-01T08:32:13;23.85;;;21.38;;
48487;SDS011;34289;48.572;13.378;2023-03-01T08:34:39;24.52;;;21.15;;
48487;SDS011;34289;48.572;13.378;2023-03-01T08:37:04;22.83;;;20.45;;
48487;SDS011;34289;48.572;13.378;2023-03-01T08:39:30;25.52;;;21.92;;
48487;SDS011;34289;48.572;13.378;2023-03-01T08:41:56;20.85;;;18.73;;
48487;SDS011;34289;48.572;13.378;2023-03-01T08:44:22;21.38;;;19.20;;
48487;SDS011;34289;48.572;13.378;2023-03-01T08:46:48;21.48;;;19.23;;
48487;SDS011;34289;48.572;13.378;2023-03-01T08:49:17;23.48;;;20.58;;
48487;SDS011;34289;48.572;13.378;2023-03-01T08:51:44;21.95;;;19.50;;
48487;SDS011;34289;48.572;13.378;2023-03-01T08:54:11;20.15;;;18.05;;
48487;SDS011;34289;48.572;13.378;2023-03-01T08:56:41;21.30;;;19.10;;
48487;SDS011;34289;48.572;13.378;2023-03-01T08:59:07;21.77;;;19.45;;
48487;SDS011;34289;48.572;13.378;2023-03-01T09:01:34;22.83;;;20.02;;
48487;SDS011;34289;48.572;13.378;2023-03-01T09:04:00;22.70;;;20.30;;
48487;SDS011;34289;48.572;13.378;2023-03-01T09:06:25;27.75;;;20.90;;
48487;SDS011;34289;48.572;13.378;2023-03-01T09:08:51;20.38;;;18.20;;
48487;SDS011;34289;48.572;13.378;2023-03-01T09:11:19;20.90;;;18.75;;
48487;SDS011;34289;48.572;13.378;2023-03-01T09:13:46;24.48;;;20.63;;
48487;SDS011;34289;48.572;13.378;2023-03-01T09:16:13;23.27;;;20.75;;
48487;SDS011;34289;48.572;13.378;2023-03-01T09:18:41;23.20;;;20.90;;
48487;SDS011;34289;48.572;13.378;2023-03-01T09:21:14;21.67;;;19.38;;
48487;SDS011;34289;48.572;13.378;2023-03-01T09:23:42;22.83;;;20.50;;
48487;SDS011;34289;48.572;13.378;2023-03-01T09:26:10;25.67;;;22.83;;
48487;SDS011;34289;48.572;13.378;2023-03-01T09:28:37;24.20;;;21.77;;
48487;SDS011;34289;48.572;13.378;2023-03-01T09:31:03;22.80;;;20.40;;
48487;SDS011;34289;48.572;13.378;2023-03-01T09:33:30;23.92;;;20.00;;
48487;SDS011;34289;48.572;13.378;2023-03-01T09:36:00;21.98;;;19.77;;
48487;SDS011;34289;48.572;13.378;2023-03-01T09:38:32;20.45;;;18.35;;
48487;SDS011;34289;48.572;13.378;2023-03-01T09:40:59;22.30;;;20.00;;
48487;SDS011;34289;48.572;13.378;2023-03-01T09:43:34;21.65;;;19.23;;
48487;SDS011;34289;48.572;13.378;2023-03-01T09:46:19;22.00;;;18.63;;
48487;SDS011;34289;48.572;13.378;2023-03-01T09:48:57;22.00;;;19.05;;
48487;SDS011;34289;48.572;13.378;2023-03-01T09:51:31;20.05;;;17.95;;
48487;SDS011;34289;48.572;13.378;2023-03-01T09:54:03;21.00;;;17.10;;
48487;SDS011;34289;48.572;13.378;2023-03-01T09:56:32;19.30;;;17.30;;
48487;SDS011;34289;48.572;13.378;2023-03-01T10:10:46;22.27;;;19.40;;
48487;SDS011;34289;48.572;13.378;2023-03-01T10:15:48;20.13;;;18.13;;
48487;SDS011;34289;48.572;13.378;2023-03-01T10:18:21;20.70;;;18.60;;
48487;SDS011;34289;48.572;13.378;2023-03-01T10:20:56;19.42;;;17.33;;
48487;SDS011;34289;48.572;13.378;2023-03-01T10:23:26;18.90;;;16.98;;
48487;SDS011;34289;48.572;13.378;2023-03-01T10:31:12;19.42;;;17.52;;
48487;SDS011;34289;48.572;13.378;2023-03-01T10:33:40;19.58;;;17.67;;
48487;SDS011;34289;48.572;13.378;2023-03-01T10:36:06;21.45;;;19.17;;
48487;SDS011;34289;48.572;13.378;2023-03-01T10:38:47;20.35;;;18.45;;
48487;SDS011;34289;48.572;13.378;2023-03-01T10:41:22;21.48;;;19.17;;
48487;SDS011;34289;48.572;13.378;2023-03-01T10:43:53;19.77;;;17.88;;
48487;SDS011;34289;48.572;13.378;2023-03-01T10:46:31;20.02;;;17.88;;
48487;SDS011;34289;48.572;13.378;2023-03-01T10:49:07;19.92;;;18.05;;
48487;SDS011;34289;48.572;13.378;2023-03-01T10:51:37;20.25;;;17.98;;
48487;SDS011;34289;48.572;13.378;2023-03-01T10:56:55;18.35;;;16.65;;
48487;SDS011;34289;48.572;13.378;2023-03-01T11:05:23;16.80;;;15.18;;
48487;SDS011;34289;48.572;13.378;2023-03-01T11:10:27;16.33;;;14.73;;
48487;SDS011;34289;48.572;13.378;2023-03-01T11:13:05;16.63;;;15.02;;
48487;SDS011;34289;48.572;13.378;2023-03-01T11:15:42;16.90;;;15.40;;
48487;SDS011;34289;48.572;13.378;2023-03-01T11:18:23;16.00;;;14.60;;
48487;SDS011;34289;48.572;13.378;2023-03-01T11:20:49;16.90;;;15.13;;
48487;SDS011;34289;48.572;13.378;2023-03-01T11:23:18;18.63;;;15.82;;
48487;SDS011;34289;48.572;13.378;2023-03-01T11:26:04;16.98;;;15.38;;
48487;SDS011;34289;48.572;13.378;2023-03-01T11:28:33;17.13;;;15.50;;
48487;SDS011;34289;48.572;13.378;2023-03-01T11:31:06;17.88;;;16.08;;
48487;SDS011;34289;48.572;13.378;2023-03-01T11:36:31;17.58;;;15.98;;
48487;SDS011;34289;48.572;13.378;2023-03-01T11:39:10;17.73;;;16.23;;
48487;SDS011;34289;48.572;13.378;2023-03-01T11:41:43;16.80;;;15.30;;
48487;SDS011;34289;48.572;13.378;2023-03-01T11:44:21;17.92;;;16.23;;
48487;SDS011;34289;48.572;13.378;2023-03-01T11:49:51;16.40;;;14.90;;
48487;SDS011;34289;48.572;13.378;2023-03-01T11:52:36;17.33;;;15.73;;
48487;SDS011;34289;48.572;13.378;2023-03-01T12:03:33;16.88;;;14.27;;
48487;SDS011;34289;48.572;13.378;2023-03-01T12:06:17;14.57;;;13.30;;
48487;SDS011;34289;48.572;13.378;2023-03-01T12:08:53;15.52;;;13.93;;
48487;SDS011;34289;48.572;13.378;2023-03-01T12:25:16;15.32;;;13.85;;
48487;SDS011;34289;48.572;13.378;2023-03-01T12:30:56;16.30;;;14.63;;
48487;SDS011;34289;48.572;13.378;2023-03-01T12:33:45;17.25;;;15.63;;
48487;SDS011;34289;48.572;13.378;2023-03-01T12:37:02;16.98;;;15.38;;
48487;SDS011;34289;48.572;13.378;2023-03-01T12:45:32;19.40;;;17.40;;
48487;SDS011;34289;48.572;13.378;2023-03-01T12:48:29;21.13;;;17.83;;
48487;SDS011;34289;48.572;13.378;2023-03-01T12:51:06;20.13;;;18.13;;
48487;SDS011;34289;48.572;13.378;2023-03-01T12:53:36;19.42;;;17.42;;
48487;SDS011;34289;48.572;13.378;2023-03-01T12:56:07;18.80;;;16.88;;
48487;SDS011;34289;48.572;13.378;2023-03-01T13:01:36;20.05;;;18.08;;
48487;SDS011;34289;48.572;13.378;2023-03-01T13:09:18;19.95;;;17.58;;
48487;SDS011;34289;48.572;13.378;2023-03-01T13:11:48;21.33;;;19.17;;
48487;SDS011;34289;48.572;13.378;2023-03-01T13:16:47;20.65;;;18.58;;
48487;SDS011;34289;48.572;13.378;2023-03-01T13:19:15;22.15;;;18.80;;
48487;SDS011;34289;48.572;13.378;2023-03-01T13:21:43;23.13;;;18.98;;
48487;SDS011;34289;48.572;13.378;2023-03-01T13:32:20;18.15;;;16.35;;
48487;SDS011;34289;48.572;13.378;2023-03-01T13:34:47;19.80;;;17.80;;
48487;SDS011;34289;48.572;13.378;2023-03-01T13:37:30;20.20;;;17.65;;
48487;SDS011;34289;48.572;13.378;2023-03-01T13:40:02;18.90;;;16.92;;
48487;SDS011;34289;48.572;13.378;2023-03-01T13:42:49;21.23;;;19.08;;
48487;SDS011;34289;48.572;13.378;2023-03-01T13:48:08;19.30;;;17.50;;
48487;SDS011;34289;48.572;13.378;2023-03-01T13:50:36;20.05;;;17.95;;
48487;SDS011;34289;48.572;13.378;2023-03-01T13:53:10;19.13;;;17.23;;
48487;SDS011;34289;48.572;13.378;2023-03-01T13:55:42;19.00;;;17.00;;
48487;SDS011;34289;48.572;13.378;2023-03-01T13:58:22;19.35;;;17.52;;
48487;SDS011;34289;48.572;13.378;2023-03-01T14:00:56;18.58;;;16.70;;
48487;SDS011;34289;48.572;13.378;2023-03-01T14:03:23;20.30;;;18.15;;
48487;SDS011;34289;48.572;13.378;2023-03-01T14:08:37;18.80;;;16.92;;
48487;SDS011;34289;48.572;13.378;2023-03-01T14:19:29;18.38;;;16.58;;
48487;SDS011;34289;48.572;13.378;2023-03-01T14:24:51;18.15;;;16.30;;
48487;SDS011;34289;48.572;13.378;2023-03-01T14:27:23;18.88;;;16.83;;
48487;SDS011;34289;48.572;13.378;2023-03-01T14:29:59;17.25;;;15.48;;
48487;SDS011;34289;48.572;13.378;2023-03-01T14:32:28;20.63;;;17.73;;
48487;SDS011;34289;48.572;13.378;2023-03-01T14:34:57;16.90;;;15.35;;
48487;SDS011;34289;48.572;13.378;2023-03-01T14:37:27;17.42;;;15.70;;
48487;SDS011;34289;48.572;13.378;2023-03-01T14:39:55;16.67;;;15.27;;
48487;SDS011;34289;48.572;13.378;2023-03-01T14:42:22;17.10;;;15.32;;
48487;SDS011;34289;48.572;13.378;2023-03-01T14:44:52;20.23;;;15.20;;
48487;SDS011;34289;48.572;13.378;2023-03-01T14:47:25;17.15;;;15.38;;
48487;SDS011;34289;48.572;13.378;2023-03-01T14:49:59;16.65;;;15.15;;
48487;SDS011;34289;48.572;13.378;2023-03-01T14:52:39;17.25;;;15.02;;
48487;SDS011;34289;48.572;13.378;2023-03-01T14:55:13;16.08;;;14.57;;
48487;SDS011;34289;48.572;13.378;2023-03-01T14:57:47;19.30;;;14.90;;
48487;SDS011;34289;48.572;13.378;2023-03-01T15:00:16;16.05;;;14.48;;
48487;SDS011;34289;48.572;13.378;2023-03-01T15:02:48;16.20;;;14.43;;
48487;SDS011;34289;48.572;13.378;2023-03-01T15:05:17;16.73;;;15.07;;
48487;SDS011;34289;48.572;13.378;2023-03-01T15:08:23;16.75;;;15.07;;
48487;SDS011;34289;48.572;13.378;2023-03-01T15:11:00;14.68;;;13.10;;
48487;SDS011;34289;48.572;13.378;2023-03-01T15:13:41;15.48;;;13.98;;
48487;SDS011;34289;48.572;13.378;2023-03-01T15:16:07;14.07;;;12.73;;
48487;SDS011;34289;48.572;13.378;2023-03-01T15:18:48;19.13;;;13.50;;
48487;SDS011;34289;48.572;13.378;2023-03-01T15:21:17;16.67;;;13.73;;
48487;SDS011;34289;48.572;13.378;2023-03-01T15:23:48;14.70;;;13.43;;
48487;SDS011;34289;48.572;13.378;2023-03-01T15:26:23;16.08;;;14.02;;
48487;SDS011;34289;48.572;13.378;2023-03-01T15:28:52;15.38;;;13.77;;
48487;SDS011;34289;48.572;13.378;2023-03-01T15:31:24;15.70;;;13.90;;
48487;SDS011;34289;48.572;13.378;2023-03-01T15:33:51;15.48;;;13.82;;
48487;SDS011;34289;48.572;13.378;2023-03-01T15:38:55;15.93;;;13.63;;
48487;SDS011;34289;48.572;13.378;2023-03-01T15:41:27;15.00;;;13.52;;
48487;SDS011;34289;48.572;13.378;2023-03-01T15:43:56;15.27;;;13.88;;
48487;SDS011;34289;48.572;13.378;2023-03-01T15:49:02;15.52;;;14.02;;
48487;SDS011;34289;48.572;13.378;2023-03-01T15:54:06;18.23;;;13.57;;
48487;SDS011;34289;48.572;13.378;2023-03-01T15:56:43;16.10;;;14.07;;
48487;SDS011;34289;48.572;13.378;2023-03-01T15:59:10;15.88;;;14.27;;
48487;SDS011;34289;48.572;13.378;2023-03-01T16:01:41;18.80;;;14.57;;
48487;SDS011;34289;48.572;13.378;2023-03-01T16:04:11;15.63;;;14.15;;
48487;SDS011;34289;48.572;13.378;2023-03-01T16:06:41;16.23;;;14.63;;
48487;SDS011;34289;48.572;13.378;2023-03-01T16:09:07;16.20;;;13.98;;
48487;SDS011;34289;48.572;13.378;2023-03-01T16:11:33;20.98;;;15.27;;
48487;SDS011;34289;48.572;13.378;2023-03-01T16:14:02;17.35;;;14.25;;
48487;SDS011;34289;48.572;13.378;2023-03-01T16:16:28;18.45;;;14.82;;
48487;SDS011;34289;48.572;13.378;2023-03-01T16:18:54;18.48;;;14.00;;
48487;SDS011;34289;48.572;13.378;2023-03-01T16:21:21;16.98;;;14.85;;
48487;SDS011;34289;48.572;13.378;2023-03-01T16:23:50;17.10;;;15.23;;
48487;SDS011;34289;48.572;13.378;2023-03-01T16:26:17;18.95;;;14.60;;
48487;SDS011;34289;48.572;13.378;2023-03-01T16:28:44;19.50;;;15.50;;
48487;SDS011;34289;48.572;13.378;2023-03-01T16:31:11;18.52;;;16.58;;
48487;SDS011;34289;48.572;13.378;2023-03-01T16:33:39;19.77;;;16.08;;
48487;SDS011;34289;48.572;13.378;2023-03-01T16:36:06;21.85;;;15.45;;